sensor_id;sensor_type;location;lat;lon;timestamp;P1;durP1;ratioP1;P2;durP2;ratioP2
13435;SDS011;6790;49.520;8.504;2023-05-03T00:00:13;8.63;;;4.47;;
13435;SDS011;6790;49.520;8.504;2023-05-03T00:02:41;6.93;;;4.07;;
13435;SDS011;6790;49.520;8.504;2023-05-03T00:05:08;7.60;;;4.60;;
13435;SDS011;6790;49.520;8.504;2023-05-03T00:07:40;6.53;;;3.80;;
13435;SDS011;6790;49.520;8.504;2023-05-03T00:10:07;8.70;;;3.97;;
13435;SDS011;6790;49.520;8.504;2023-05-03T00:12:38;9.23;;;4.60;;
13435;SDS011;6790;49.520;8.504;2023-05-03T00:15:04;7.23;;;4.20;;
13435;SDS011;6790;49.520;8.504;2023-05-03T00:17:31;8.47;;;3.93;;
13435;SDS011;6790;49.520;8.504;2023-05-03T00:19:57;8.87;;;4.10;;
13435;SDS011;6790;49.520;8.504;2023-05-03T00:22:23;7.50;;;4.37;;
13435;SDS011;6790;49.520;8.504;2023-05-03T00:24:49;8.37;;;4.57;;
13435;SDS011;6790;49.520;8.504;2023-05-03T00:27:15;9.97;;;4.47;;
13435;SDS011;6790;49.520;8.504;2023-05-03T00:29:42;8.40;;;3.77;;
13435;SDS011;6790;49.520;8.504;2023-05-03T00:32:07;8.40;;;4.50;;
13435;SDS011;6790;49.520;8.504;2023-05-03T00:34:34;10.50;;;4.40;;
13435;SDS011;6790;49.520;8.504;2023-05-03T00:37:01;8.00;;;4.23;;
13435;SDS011;6790;49.520;8.504;2023-05-03T00:39:30;7.27;;;4.17;;
13435;SDS011;6790;49.520;8.504;2023-05-03T00:41:56;5.47;;;4.00;;
13435;SDS011;6790;49.520;8.504;2023-05-03T00:44:23;7.20;;;4.33;;
13435;SDS011;6790;49.520;8.504;2023-05-03T00:46:50;9.73;;;4.73;;
13435;SDS011;6790;49.520;8.504;2023-05-03T00:49:16;6.33;;;4.00;;
13435;SDS011;6790;49.520;8.504;2023-05-03T00:51:42;7.10;;;4.43;;
13435;SDS011;6790;49.520;8.504;2023-05-03T00:54:07;7.40;;;4.40;;
13435;SDS011;6790;49.520;8.504;2023-05-03T00:56:34;6.90;;;3.77;;
13435;SDS011;6790;49.520;8.504;2023-05-03T00:59:03;7.33;;;4.30;;
13435;SDS011;6790;49.520;8.504;2023-05-03T01:01:30;7.80;;;4.00;;
13435;SDS011;6790;49.520;8.504;2023-05-03T01:03:56;9.40;;;4.37;;
13435;SDS011;6790;49.520;8.504;2023-05-03T01:12:59;7.50;;;4.27;;
13435;SDS011;6790;49.520;8.504;2023-05-03T01:15:43;11.10;;;3.80;;
13435;SDS011;6790;49.520;8.504;2023-05-03T01:18:33;5.57;;;4.33;;
13435;SDS011;6790;49.520;8.504;2023-05-03T01:21:05;6.43;;;4.27;;
13435;SDS011;6790;49.520;8.504;2023-05-03T01:26:32;7.63;;;4.13;;
13435;SDS011;6790;49.520;8.504;2023-05-03T01:28:57;10.73;;;3.90;;
13435;SDS011;6790;49.520;8.504;2023-05-03T01:34:17;7.53;;;4.47;;
13435;SDS011;6790;49.520;8.504;2023-05-03T01:37:03;8.37;;;4.53;;
13435;SDS011;6790;49.520;8.504;2023-05-03T01:42:25;10.03;;;4.40;;
13435;SDS011;6790;49.520;8.504;2023-05-03T01:44:52;9.37;;;4.27;;
13435;SDS011;6790;49.520;8.504;2023-05-03T01:47:19;7.43;;;4.37;;
13435;SDS011;6790;49.520;8.504;2023-05-03T01:49:45;10.93;;;4.53;;
13435;SDS011;6790;49.520;8.504;2023-05-03T01:52:11;9.27;;;5.03;;
13435;SDS011;6790;49.520;8.504;2023-05-03T01:54:36;7.67;;;4.10;;
13435;SDS011;6790;49.520;8.504;2023-05-03T01:57:02;8.10;;;4.63;;
13435;SDS011;6790;49.520;8.504;2023-05-03T01:59:28;7.30;;;4.70;;
13435;SDS011;6790;49.520;8.504;2023-05-03T02:01:53;8.53;;;4.73;;
13435;SDS011;6790;49.520;8.504;2023-05-03T02:04:19;5.93;;;4.43;;
13435;SDS011;6790;49.520;8.504;2023-05-03T02:06:45;9.33;;;4.77;;
13435;SDS011;6790;49.520;8.504;2023-05-03T02:09:10;10.50;;;4.70;;
13435;SDS011;6790;49.520;8.504;2023-05-03T02:11:36;6.87;;;4.73;;
13435;SDS011;6790;49.520;8.504;2023-05-03T02:14:02;8.67;;;5.23;;
13435;SDS011;6790;49.520;8.504;2023-05-03T02:16:28;7.77;;;4.40;;
13435;SDS011;6790;49.520;8.504;2023-05-03T02:18:53;8.70;;;5.10;;
13435;SDS011;6790;49.520;8.504;2023-05-03T02:21:23;7.77;;;4.87;;
13435;SDS011;6790;49.520;8.504;2023-05-03T02:23:50;8.03;;;4.83;;
13435;SDS011;6790;49.520;8.504;2023-05-03T02:26:16;10.00;;;5.80;;
13435;SDS011;6790;49.520;8.504;2023-05-03T02:28:42;8.03;;;5.27;;
13435;SDS011;6790;49.520;8.504;2023-05-03T02:31:07;7.70;;;5.13;;
13435;SDS011;6790;49.520;8.504;2023-05-03T02:33:33;12.50;;;6.20;;
13435;SDS011;6790;49.520;8.504;2023-05-03T02:35:59;6.90;;;4.40;;
13435;SDS011;6790;49.520;8.504;2023-05-03T02:38:24;10.07;;;5.00;;
13435;SDS011;6790;49.520;8.504;2023-05-03T02:40:50;10.60;;;5.70;;
13435;SDS011;6790;49.520;8.504;2023-05-03T02:43:16;9.50;;;4.93;;
13435;SDS011;6790;49.520;8.504;2023-05-03T02:45:42;9.93;;;5.03;;
13435;SDS011;6790;49.520;8.504;2023-05-03T02:48:08;7.90;;;4.80;;
13435;SDS011;6790;49.520;8.504;2023-05-03T02:50:34;8.30;;;5.20;;
13435;SDS011;6790;49.520;8.504;2023-05-03T02:53:00;11.20;;;5.43;;
13435;SDS011;6790;49.520;8.504;2023-05-03T02:55:26;9.03;;;4.47;;
13435;SDS011;6790;49.520;8.504;2023-05-03T02:57:52;8.37;;;5.23;;
13435;SDS011;6790;49.520;8.504;2023-05-03T03:00:17;9.93;;;5.10;;
13435;SDS011;6790;49.520;8.504;2023-05-03T03:02:43;8.53;;;4.93;;
13435;SDS011;6790;49.520;8.504;2023-05-03T03:05:09;8.13;;;5.03;;
13435;SDS011;6790;49.520;8.504;2023-05-03T03:07:36;8.73;;;5.10;;
13435;SDS011;6790;49.520;8.504;2023-05-03T03:10:02;7.23;;;4.80;;
13435;SDS011;6790;49.520;8.504;2023-05-03T03:12:28;7.13;;;4.90;;
13435;SDS011;6790;49.520;8.504;2023-05-03T03:14:54;8.67;;;5.30;;
13435;SDS011;6790;49.520;8.504;2023-05-03T03:17:19;8.93;;;5.27;;
13435;SDS011;6790;49.520;8.504;2023-05-03T03:19:45;7.90;;;5.37;;
13435;SDS011;6790;49.520;8.504;2023-05-03T03:22:11;9.33;;;5.20;;
13435;SDS011;6790;49.520;8.504;2023-05-03T03:24:36;10.23;;;5.27;;
13435;SDS011;6790;49.520;8.504;2023-05-03T03:27:02;7.57;;;5.47;;
13435;SDS011;6790;49.520;8.504;2023-05-03T03:29:31;12.27;;;5.20;;
13435;SDS011;6790;49.520;8.504;2023-05-03T03:31:58;9.33;;;4.90;;
13435;SDS011;6790;49.520;8.504;2023-05-03T03:34:24;9.63;;;4.97;;
13435;SDS011;6790;49.520;8.504;2023-05-03T03:36:50;8.40;;;4.80;;
13435;SDS011;6790;49.520;8.504;2023-05-03T03:39:15;12.23;;;5.70;;
13435;SDS011;6790;49.520;8.504;2023-05-03T03:41:41;11.73;;;5.17;;
13435;SDS011;6790;49.520;8.504;2023-05-03T03:44:07;7.60;;;5.20;;
13435;SDS011;6790;49.520;8.504;2023-05-03T03:46:33;8.57;;;5.40;;
13435;SDS011;6790;49.520;8.504;2023-05-03T03:48:59;9.27;;;5.23;;
13435;SDS011;6790;49.520;8.504;2023-05-03T03:51:24;11.40;;;5.50;;
13435;SDS011;6790;49.520;8.504;2023-05-03T03:53:50;6.63;;;5.33;;
13435;SDS011;6790;49.520;8.504;2023-05-03T03:56:16;15.97;;;5.63;;
13435;SDS011;6790;49.520;8.504;2023-05-03T03:58:42;12.67;;;6.73;;
13435;SDS011;6790;49.520;8.504;2023-05-03T04:01:08;9.17;;;5.23;;
13435;SDS011;6790;49.520;8.504;2023-05-03T04:03:33;11.77;;;6.20;;
13435;SDS011;6790;49.520;8.504;2023-05-03T04:05:59;8.77;;;5.67;;
13435;SDS011;6790;49.520;8.504;2023-05-03T04:08:25;9.60;;;6.10;;
13435;SDS011;6790;49.520;8.504;2023-05-03T04:10:51;9.67;;;6.23;;
13435;SDS011;6790;49.520;8.504;2023-05-03T04:13:17;8.43;;;5.33;;
13435;SDS011;6790;49.520;8.504;2023-05-03T04:15:43;7.67;;;5.33;;
13435;SDS011;6790;49.520;8.504;2023-05-03T04:18:09;10.27;;;5.30;;
13435;SDS011;6790;49.520;8.504;2023-05-03T04:20:35;11.87;;;6.00;;
13435;SDS011;6790;49.520;8.504;2023-05-03T04:23:01;10.90;;;6.33;;
13435;SDS011;6790;49.520;8.504;2023-05-03T04:25:27;11.07;;;5.50;;
13435;SDS011;6790;49.520;8.504;2023-05-03T04:27:55;7.60;;;5.37;;
13435;SDS011;6790;49.520;8.504;2023-05-03T04:30:22;13.53;;;5.50;;
13435;SDS011;6790;49.520;8.504;2023-05-03T04:32:49;10.67;;;6.13;;
13435;SDS011;6790;49.520;8.504;2023-05-03T04:35:18;11.33;;;5.77;;
13435;SDS011;6790;49.520;8.504;2023-05-03T04:37:44;7.83;;;5.23;;
13435;SDS011;6790;49.520;8.504;2023-05-03T04:40:10;14.83;;;6.20;;
13435;SDS011;6790;49.520;8.504;2023-05-03T04:42:36;8.93;;;5.67;;
13435;SDS011;6790;49.520;8.504;2023-05-03T04:45:02;13.10;;;5.50;;
13435;SDS011;6790;49.520;8.504;2023-05-03T04:47:30;10.57;;;5.37;;
13435;SDS011;6790;49.520;8.504;2023-05-03T04:49:57;12.33;;;5.50;;
13435;SDS011;6790;49.520;8.504;2023-05-03T04:52:23;10.17;;;6.03;;
13435;SDS011;6790;49.520;8.504;2023-05-03T04:54:50;9.10;;;6.03;;
13435;SDS011;6790;49.520;8.504;2023-05-03T04:57:16;10.30;;;5.10;;
13435;SDS011;6790;49.520;8.504;2023-05-03T04:59:42;8.20;;;5.10;;
13435;SDS011;6790;49.520;8.504;2023-05-03T05:02:08;7.67;;;5.37;;
13435;SDS011;6790;49.520;8.504;2023-05-03T05:04:34;8.73;;;4.93;;
13435;SDS011;6790;49.520;8.504;2023-05-03T05:07:00;8.93;;;5.33;;
13435;SDS011;6790;49.520;8.504;2023-05-03T05:09:26;8.50;;;5.33;;
13435;SDS011;6790;49.520;8.504;2023-05-03T05:11:53;9.17;;;5.43;;
13435;SDS011;6790;49.520;8.504;2023-05-03T05:14:19;9.17;;;5.17;;
13435;SDS011;6790;49.520;8.504;2023-05-03T05:16:45;8.67;;;5.40;;
13435;SDS011;6790;49.520;8.504;2023-05-03T05:19:11;8.60;;;6.37;;
13435;SDS011;6790;49.520;8.504;2023-05-03T05:21:37;9.93;;;6.17;;
13435;SDS011;6790;49.520;8.504;2023-05-03T05:24:03;8.17;;;5.27;;
13435;SDS011;6790;49.520;8.504;2023-05-03T05:26:29;6.83;;;5.07;;
13435;SDS011;6790;49.520;8.504;2023-05-03T05:28:56;11.57;;;5.30;;
13435;SDS011;6790;49.520;8.504;2023-05-03T05:31:21;10.00;;;5.17;;
13435;SDS011;6790;49.520;8.504;2023-05-03T05:33:48;8.83;;;5.37;;
13435;SDS011;6790;49.520;8.504;2023-05-03T05:36:14;10.60;;;5.50;;
13435;SDS011;6790;49.520;8.504;2023-05-03T05:38:40;7.63;;;5.20;;
13435;SDS011;6790;49.520;8.504;2023-05-03T05:41:06;9.17;;;5.13;;
13435;SDS011;6790;49.520;8.504;2023-05-03T05:43:31;10.80;;;5.60;;
13435;SDS011;6790;49.520;8.504;2023-05-03T05:45:57;11.10;;;4.97;;
13435;SDS011;6790;49.520;8.504;2023-05-03T05:48:23;9.40;;;4.93;;
13435;SDS011;6790;49.520;8.504;2023-05-03T05:50:49;8.43;;;5.40;;
13435;SDS011;6790;49.520;8.504;2023-05-03T05:53:15;8.73;;;4.87;;
13435;SDS011;6790;49.520;8.504;2023-05-03T05:55:40;13.73;;;6.03;;
13435;SDS011;6790;49.520;8.504;2023-05-03T05:58:06;8.30;;;5.00;;
13435;SDS011;6790;49.520;8.504;2023-05-03T06:00:32;7.27;;;4.90;;
13435;SDS011;6790;49.520;8.504;2023-05-03T06:02:57;7.43;;;5.07;;
13435;SDS011;6790;49.520;8.504;2023-05-03T06:05:23;13.23;;;4.93;;
13435;SDS011;6790;49.520;8.504;2023-05-03T06:07:49;16.50;;;5.37;;
13435;SDS011;6790;49.520;8.504;2023-05-03T06:10:15;12.33;;;5.60;;
13435;SDS011;6790;49.520;8.504;2023-05-03T06:12:41;7.50;;;4.50;;
13435;SDS011;6790;49.520;8.504;2023-05-03T06:15:06;7.93;;;4.67;;
13435;SDS011;6790;49.520;8.504;2023-05-03T06:17:33;11.00;;;5.03;;
13435;SDS011;6790;49.520;8.504;2023-05-03T06:19:59;8.43;;;4.40;;
13435;SDS011;6790;49.520;8.504;2023-05-03T06:22:25;11.33;;;4.50;;
13435;SDS011;6790;49.520;8.504;2023-05-03T06:24:51;8.00;;;4.87;;
13435;SDS011;6790;49.520;8.504;2023-05-03T06:27:17;10.87;;;4.97;;
13435;SDS011;6790;49.520;8.504;2023-05-03T06:29:43;6.30;;;4.77;;
13435;SDS011;6790;49.520;8.504;2023-05-03T06:32:09;8.20;;;4.40;;
13435;SDS011;6790;49.520;8.504;2023-05-03T06:34:35;6.60;;;4.67;;
13435;SDS011;6790;49.520;8.504;2023-05-03T06:37:01;8.67;;;4.03;;
13435;SDS011;6790;49.520;8.504;2023-05-03T06:39:27;7.90;;;4.67;;
13435;SDS011;6790;49.520;8.504;2023-05-03T06:41:53;7.53;;;5.00;;
13435;SDS011;6790;49.520;8.504;2023-05-03T06:44:19;8.10;;;4.57;;
13435;SDS011;6790;49.520;8.504;2023-05-03T06:46:44;8.57;;;4.27;;
13435;SDS011;6790;49.520;8.504;2023-05-03T06:49:10;5.63;;;4.20;;
13435;SDS011;6790;49.520;8.504;2023-05-03T06:51:36;6.47;;;4.07;;
13435;SDS011;6790;49.520;8.504;2023-05-03T06:54:01;7.07;;;4.03;;
13435;SDS011;6790;49.520;8.504;2023-05-03T06:56:34;7.73;;;4.30;;
13435;SDS011;6790;49.520;8.504;2023-05-03T06:59:00;6.63;;;3.97;;
13435;SDS011;6790;49.520;8.504;2023-05-03T07:01:27;8.23;;;4.17;;
13435;SDS011;6790;49.520;8.504;2023-05-03T07:03:54;5.80;;;3.90;;
13435;SDS011;6790;49.520;8.504;2023-05-03T07:06:20;7.70;;;4.17;;
13435;SDS011;6790;49.520;8.504;2023-05-03T07:08:48;7.20;;;4.40;;
13435;SDS011;6790;49.520;8.504;2023-05-03T07:11:16;6.20;;;3.97;;
13435;SDS011;6790;49.520;8.504;2023-05-03T07:13:42;5.67;;;4.43;;
13435;SDS011;6790;49.520;8.504;2023-05-03T07:16:07;8.87;;;4.50;;
13435;SDS011;6790;49.520;8.504;2023-05-03T07:18:33;6.73;;;4.33;;
13435;SDS011;6790;49.520;8.504;2023-05-03T07:20:59;8.97;;;4.53;;
13435;SDS011;6790;49.520;8.504;2023-05-03T07:23:29;8.73;;;4.40;;
13435;SDS011;6790;49.520;8.504;2023-05-03T07:25:55;7.07;;;4.13;;
13435;SDS011;6790;49.520;8.504;2023-05-03T07:28:21;6.50;;;4.20;;
13435;SDS011;6790;49.520;8.504;2023-05-03T07:30:47;7.57;;;3.97;;
13435;SDS011;6790;49.520;8.504;2023-05-03T07:33:13;6.67;;;4.57;;
13435;SDS011;6790;49.520;8.504;2023-05-03T07:35:40;5.93;;;4.13;;
13435;SDS011;6790;49.520;8.504;2023-05-03T07:38:05;6.97;;;4.13;;
13435;SDS011;6790;49.520;8.504;2023-05-03T07:40:31;27.63;;;5.73;;
13435;SDS011;6790;49.520;8.504;2023-05-03T07:42:58;8.27;;;4.43;;
13435;SDS011;6790;49.520;8.504;2023-05-03T07:45:24;7.80;;;4.17;;
13435;SDS011;6790;49.520;8.504;2023-05-03T07:47:51;5.97;;;4.13;;
13435;SDS011;6790;49.520;8.504;2023-05-03T07:50:17;6.00;;;4.20;;
13435;SDS011;6790;49.520;8.504;2023-05-03T07:52:43;9.70;;;4.40;;
13435;SDS011;6790;49.520;8.504;2023-05-03T07:55:09;6.63;;;4.50;;
13435;SDS011;6790;49.520;8.504;2023-05-03T07:57:35;7.60;;;3.60;;
13435;SDS011;6790;49.520;8.504;2023-05-03T08:00:01;5.53;;;3.87;;
13435;SDS011;6790;49.520;8.504;2023-05-03T08:02:29;4.37;;;3.97;;
13435;SDS011;6790;49.520;8.504;2023-05-03T08:04:55;6.73;;;3.93;;
13435;SDS011;6790;49.520;8.504;2023-05-03T08:07:20;12.43;;;4.77;;
13435;SDS011;6790;49.520;8.504;2023-05-03T08:09:47;9.63;;;5.10;;
13435;SDS011;6790;49.520;8.504;2023-05-03T08:12:13;5.80;;;4.60;;
13435;SDS011;6790;49.520;8.504;2023-05-03T08:14:39;8.50;;;4.40;;
13435;SDS011;6790;49.520;8.504;2023-05-03T08:17:05;9.70;;;4.60;;
13435;SDS011;6790;49.520;8.504;2023-05-03T08:19:31;6.33;;;4.20;;
13435;SDS011;6790;49.520;8.504;2023-05-03T08:21:57;6.80;;;3.83;;
13435;SDS011;6790;49.520;8.504;2023-05-03T08:24:23;6.37;;;3.90;;
13435;SDS011;6790;49.520;8.504;2023-05-03T08:26:50;4.80;;;3.90;;
13435;SDS011;6790;49.520;8.504;2023-05-03T08:29:16;7.03;;;4.20;;
13435;SDS011;6790;49.520;8.504;2023-05-03T08:31:42;6.63;;;3.70;;
13435;SDS011;6790;49.520;8.504;2023-05-03T08:34:08;6.67;;;3.70;;
13435;SDS011;6790;49.520;8.504;2023-05-03T08:36:35;6.03;;;4.03;;
13435;SDS011;6790;49.520;8.504;2023-05-03T08:39:02;8.03;;;4.13;;
13435;SDS011;6790;49.520;8.504;2023-05-03T08:41:32;5.20;;;4.20;;
13435;SDS011;6790;49.520;8.504;2023-05-03T08:43:58;5.70;;;3.70;;
13435;SDS011;6790;49.520;8.504;2023-05-03T08:46:25;6.27;;;3.97;;
13435;SDS011;6790;49.520;8.504;2023-05-03T08:48:53;6.87;;;4.10;;
13435;SDS011;6790;49.520;8.504;2023-05-03T08:51:20;5.93;;;3.93;;
13435;SDS011;6790;49.520;8.504;2023-05-03T08:53:48;7.50;;;4.60;;
13435;SDS011;6790;49.520;8.504;2023-05-03T08:56:28;8.67;;;4.97;;
13435;SDS011;6790;49.520;8.504;2023-05-03T08:58:58;8.00;;;4.23;;
13435;SDS011;6790;49.520;8.504;2023-05-03T09:01:31;7.93;;;4.73;;
13435;SDS011;6790;49.520;8.504;2023-05-03T09:03:58;7.97;;;4.57;;
13435;SDS011;6790;49.520;8.504;2023-05-03T09:06:23;7.00;;;4.60;;
13435;SDS011;6790;49.520;8.504;2023-05-03T09:08:52;10.53;;;4.70;;
13435;SDS011;6790;49.520;8.504;2023-05-03T09:11:20;6.77;;;4.57;;
13435;SDS011;6790;49.520;8.504;2023-05-03T09:13:48;5.83;;;4.37;;
13435;SDS011;6790;49.520;8.504;2023-05-03T09:16:21;6.10;;;4.13;;
13435;SDS011;6790;49.520;8.504;2023-05-03T09:19:04;5.93;;;4.40;;
13435;SDS011;6790;49.520;8.504;2023-05-03T09:21:33;6.87;;;4.53;;
13435;SDS011;6790;49.520;8.504;2023-05-03T09:24:00;10.07;;;4.33;;
13435;SDS011;6790;49.520;8.504;2023-05-03T09:28:59;4.97;;;4.20;;
13435;SDS011;6790;49.520;8.504;2023-05-03T09:31:28;6.20;;;4.30;;
13435;SDS011;6790;49.520;8.504;2023-05-03T09:33:57;7.17;;;4.30;;
13435;SDS011;6790;49.520;8.504;2023-05-03T09:36:24;6.47;;;4.60;;
13435;SDS011;6790;49.520;8.504;2023-05-03T09:38:51;6.40;;;4.63;;
13435;SDS011;6790;49.520;8.504;2023-05-03T09:41:30;6.47;;;4.03;;
13435;SDS011;6790;49.520;8.504;2023-05-03T09:43:56;10.43;;;4.50;;
13435;SDS011;6790;49.520;8.504;2023-05-03T09:46:27;6.00;;;4.47;;
13435;SDS011;6790;49.520;8.504;2023-05-03T09:48:56;9.57;;;4.33;;
13435;SDS011;6790;49.520;8.504;2023-05-03T09:51:22;7.10;;;4.43;;
13435;SDS011;6790;49.520;8.504;2023-05-03T09:53:48;6.30;;;4.23;;
13435;SDS011;6790;49.520;8.504;2023-05-03T09:56:15;7.07;;;4.83;;
13435;SDS011;6790;49.520;8.504;2023-05-03T09:58:41;6.20;;;4.60;;
13435;SDS011;6790;49.520;8.504;2023-05-03T10:01:07;4.82;;;4.13;;
13435;SDS011;6790;49.520;8.504;2023-05-03T10:03:41;7.43;;;4.35;;
13435;SDS011;6790;49.520;8.504;2023-05-03T10:06:24;9.03;;;4.17;;
13435;SDS011;6790;49.520;8.504;2023-05-03T10:11:46;6.85;;;4.70;;
13435;SDS011;6790;49.520;8.504;2023-05-03T10:14:16;5.97;;;4.25;;
13435;SDS011;6790;49.520;8.504;2023-05-03T10:16:43;5.72;;;3.85;;
13435;SDS011;6790;49.520;8.504;2023-05-03T10:22:01;4.97;;;4.03;;
13435;SDS011;6790;49.520;8.504;2023-05-03T10:24:29;8.05;;;4.28;;
13435;SDS011;6790;49.520;8.504;2023-05-03T10:26:59;4.45;;;3.88;;
13435;SDS011;6790;49.520;8.504;2023-05-03T10:29:47;6.45;;;4.00;;
13435;SDS011;6790;49.520;8.504;2023-05-03T10:32:32;8.30;;;4.93;;
13435;SDS011;6790;49.520;8.504;2023-05-03T10:35:00;5.20;;;4.45;;
13435;SDS011;6790;49.520;8.504;2023-05-03T10:37:37;5.65;;;4.07;;
13435;SDS011;6790;49.520;8.504;2023-05-03T10:40:13;4.38;;;3.63;;
13435;SDS011;6790;49.520;8.504;2023-05-03T10:45:21;7.32;;;3.80;;
13435;SDS011;6790;49.520;8.504;2023-05-03T10:50:36;5.18;;;3.47;;
13435;SDS011;6790;49.520;8.504;2023-05-03T10:53:06;7.15;;;3.25;;
13435;SDS011;6790;49.520;8.504;2023-05-03T10:55:33;4.78;;;3.70;;
13435;SDS011;6790;49.520;8.504;2023-05-03T10:58:00;6.65;;;3.50;;
13435;SDS011;6790;49.520;8.504;2023-05-03T11:00:29;4.40;;;3.67;;
13435;SDS011;6790;49.520;8.504;2023-05-03T11:05:55;6.35;;;4.28;;
13435;SDS011;6790;49.520;8.504;2023-05-03T11:08:21;5.00;;;4.03;;
13435;SDS011;6790;49.520;8.504;2023-05-03T11:10:55;5.75;;;3.90;;
13435;SDS011;6790;49.520;8.504;2023-05-03T11:13:23;8.32;;;4.25;;
13435;SDS011;6790;49.520;8.504;2023-05-03T11:15:49;6.07;;;4.35;;
13435;SDS011;6790;49.520;8.504;2023-05-03T11:18:17;7.18;;;4.03;;
13435;SDS011;6790;49.520;8.504;2023-05-03T11:20:43;7.60;;;4.13;;
13435;SDS011;6790;49.520;8.504;2023-05-03T11:23:10;6.45;;;4.15;;
13435;SDS011;6790;49.520;8.504;2023-05-03T11:25:36;5.15;;;4.10;;
13435;SDS011;6790;49.520;8.504;2023-05-03T11:28:03;6.40;;;4.45;;
13435;SDS011;6790;49.520;8.504;2023-05-03T11:30:31;5.72;;;4.03;;
13435;SDS011;6790;49.520;8.504;2023-05-03T11:32:59;4.72;;;4.15;;
13435;SDS011;6790;49.520;8.504;2023-05-03T11:35:27;7.50;;;4.43;;
13435;SDS011;6790;49.520;8.504;2023-05-03T11:37:54;5.30;;;4.60;;
13435;SDS011;6790;49.520;8.504;2023-05-03T11:40:20;7.32;;;3.72;;
13435;SDS011;6790;49.520;8.504;2023-05-03T11:48:08;18.02;;;13.95;;
13435;SDS011;6790;49.520;8.504;2023-05-03T11:53:19;5.97;;;4.30;;
13435;SDS011;6790;49.520;8.504;2023-05-03T11:55:50;5.05;;;4.10;;
13435;SDS011;6790;49.520;8.504;2023-05-03T11:58:21;5.45;;;3.90;;
13435;SDS011;6790;49.520;8.504;2023-05-03T12:00:49;4.53;;;3.92;;
13435;SDS011;6790;49.520;8.504;2023-05-03T12:05:48;5.25;;;3.65;;
13435;SDS011;6790;49.520;8.504;2023-05-03T12:08:16;5.18;;;3.88;;
13435;SDS011;6790;49.520;8.504;2023-05-03T12:10:47;5.32;;;3.90;;
13435;SDS011;6790;49.520;8.504;2023-05-03T12:13:14;6.45;;;4.22;;
13435;SDS011;6790;49.520;8.504;2023-05-03T12:15:40;8.20;;;4.53;;
13435;SDS011;6790;49.520;8.504;2023-05-03T12:18:10;6.45;;;3.95;;
13435;SDS011;6790;49.520;8.504;2023-05-03T12:20:37;6.03;;;3.85;;
13435;SDS011;6790;49.520;8.504;2023-05-03T12:23:07;7.57;;;4.10;;
13435;SDS011;6790;49.520;8.504;2023-05-03T12:25:33;5.82;;;3.97;;
13435;SDS011;6790;49.520;8.504;2023-05-03T12:28:02;5.55;;;3.90;;
13435;SDS011;6790;49.520;8.504;2023-05-03T12:30:29;6.35;;;3.72;;
13435;SDS011;6790;49.520;8.504;2023-05-03T12:32:56;5.53;;;3.83;;
13435;SDS011;6790;49.520;8.504;2023-05-03T12:35:22;4.70;;;3.40;;
13435;SDS011;6790;49.520;8.504;2023-05-03T12:37:48;3.63;;;3.28;;
13435;SDS011;6790;49.520;8.504;2023-05-03T12:40:15;4.30;;;3.40;;
13435;SDS011;6790;49.520;8.504;2023-05-03T12:42:43;5.47;;;3.70;;
13435;SDS011;6790;49.520;8.504;2023-05-03T12:45:10;3.90;;;3.38;;
13435;SDS011;6790;49.520;8.504;2023-05-03T12:47:36;6.72;;;4.00;;
13435;SDS011;6790;49.520;8.504;2023-05-03T12:50:03;5.90;;;3.58;;
13435;SDS011;6790;49.520;8.504;2023-05-03T12:52:29;6.90;;;3.85;;
13435;SDS011;6790;49.520;8.504;2023-05-03T12:54:58;6.63;;;3.90;;
13435;SDS011;6790;49.520;8.504;2023-05-03T12:57:24;5.57;;;3.50;;
13435;SDS011;6790;49.520;8.504;2023-05-03T12:59:50;4.50;;;3.35;;
13435;SDS011;6790;49.520;8.504;2023-05-03T13:02:20;5.15;;;3.55;;
13435;SDS011;6790;49.520;8.504;2023-05-03T13:04:46;4.75;;;3.67;;
13435;SDS011;6790;49.520;8.504;2023-05-03T13:07:19;4.07;;;3.38;;
13435;SDS011;6790;49.520;8.504;2023-05-03T13:09:52;4.32;;;3.60;;
13435;SDS011;6790;49.520;8.504;2023-05-03T13:12:20;4.60;;;3.30;;
13435;SDS011;6790;49.520;8.504;2023-05-03T13:14:51;5.00;;;2.88;;
13435;SDS011;6790;49.520;8.504;2023-05-03T13:17:19;6.97;;;3.35;;
13435;SDS011;6790;49.520;8.504;2023-05-03T13:19:46;5.85;;;3.45;;
13435;SDS011;6790;49.520;8.504;2023-05-03T13:22:13;5.65;;;3.42;;
13435;SDS011;6790;49.520;8.504;2023-05-03T13:24:40;3.78;;;3.28;;
13435;SDS011;6790;49.520;8.504;2023-05-03T13:27:08;3.75;;;2.47;;
13435;SDS011;6790;49.520;8.504;2023-05-03T13:29:36;3.13;;;2.40;;
13435;SDS011;6790;49.520;8.504;2023-05-03T13:32:03;8.02;;;2.85;;
13435;SDS011;6790;49.520;8.504;2023-05-03T13:34:29;5.85;;;3.00;;
13435;SDS011;6790;49.520;8.504;2023-05-03T13:36:55;3.40;;;2.90;;
13435;SDS011;6790;49.520;8.504;2023-05-03T13:39:21;3.70;;;2.60;;
13435;SDS011;6790;49.520;8.504;2023-05-03T13:41:47;6.97;;;3.20;;
13435;SDS011;6790;49.520;8.504;2023-05-03T13:44:13;4.82;;;2.72;;
13435;SDS011;6790;49.520;8.504;2023-05-03T13:46:39;4.88;;;2.80;;
13435;SDS011;6790;49.520;8.504;2023-05-03T13:49:05;3.38;;;2.67;;
13435;SDS011;6790;49.520;8.504;2023-05-03T13:51:32;3.35;;;2.80;;
13435;SDS011;6790;49.520;8.504;2023-05-03T13:53:59;3.38;;;2.67;;
13435;SDS011;6790;49.520;8.504;2023-05-03T13:56:26;2.83;;;2.40;;
13435;SDS011;6790;49.520;8.504;2023-05-03T13:58:52;3.60;;;2.65;;
13435;SDS011;6790;49.520;8.504;2023-05-03T14:01:22;3.20;;;2.83;;
13435;SDS011;6790;49.520;8.504;2023-05-03T14:03:48;6.03;;;2.92;;
13435;SDS011;6790;49.520;8.504;2023-05-03T14:06:15;3.90;;;3.50;;
13435;SDS011;6790;49.520;8.504;2023-05-03T14:08:41;3.10;;;2.70;;
13435;SDS011;6790;49.520;8.504;2023-05-03T14:11:13;4.45;;;2.78;;
13435;SDS011;6790;49.520;8.504;2023-05-03T14:13:40;3.33;;;2.60;;
13435;SDS011;6790;49.520;8.504;2023-05-03T14:16:07;3.58;;;2.60;;
13435;SDS011;6790;49.520;8.504;2023-05-03T14:18:40;3.08;;;2.70;;
13435;SDS011;6790;49.520;8.504;2023-05-03T14:21:06;4.40;;;2.85;;
13435;SDS011;6790;49.520;8.504;2023-05-03T14:23:32;2.97;;;2.58;;
13435;SDS011;6790;49.520;8.504;2023-05-03T14:25:57;4.78;;;2.72;;
13435;SDS011;6790;49.520;8.504;2023-05-03T14:28:23;4.50;;;3.00;;
13435;SDS011;6790;49.520;8.504;2023-05-03T14:30:49;3.10;;;2.80;;
13435;SDS011;6790;49.520;8.504;2023-05-03T14:33:15;3.63;;;2.80;;
13435;SDS011;6790;49.520;8.504;2023-05-03T14:35:41;4.10;;;2.55;;
13435;SDS011;6790;49.520;8.504;2023-05-03T14:38:07;5.53;;;2.60;;
13435;SDS011;6790;49.520;8.504;2023-05-03T14:40:33;3.28;;;2.90;;
13435;SDS011;6790;49.520;8.504;2023-05-03T14:42:59;3.95;;;2.75;;
13435;SDS011;6790;49.520;8.504;2023-05-03T14:45:28;4.57;;;2.60;;
13435;SDS011;6790;49.520;8.504;2023-05-03T14:47:54;3.05;;;2.63;;
13435;SDS011;6790;49.520;8.504;2023-05-03T14:50:20;2.60;;;2.35;;
13435;SDS011;6790;49.520;8.504;2023-05-03T14:52:45;5.22;;;2.60;;
13435;SDS011;6790;49.520;8.504;2023-05-03T14:55:11;2.90;;;2.60;;
13435;SDS011;6790;49.520;8.504;2023-05-03T14:57:37;5.32;;;2.78;;
13435;SDS011;6790;49.520;8.504;2023-05-03T15:00:06;4.18;;;2.78;;
13435;SDS011;6790;49.520;8.504;2023-05-03T15:02:38;3.53;;;2.58;;
13435;SDS011;6790;49.520;8.504;2023-05-03T15:05:06;5.43;;;2.50;;
13435;SDS011;6790;49.520;8.504;2023-05-03T15:07:33;3.63;;;2.55;;
13435;SDS011;6790;49.520;8.504;2023-05-03T15:10:02;4.05;;;2.67;;
13435;SDS011;6790;49.520;8.504;2023-05-03T15:12:28;4.25;;;2.53;;
13435;SDS011;6790;49.520;8.504;2023-05-03T15:14:55;3.85;;;2.80;;
13435;SDS011;6790;49.520;8.504;2023-05-03T15:17:20;3.75;;;2.67;;
13435;SDS011;6790;49.520;8.504;2023-05-03T15:19:47;4.80;;;2.25;;
13435;SDS011;6790;49.520;8.504;2023-05-03T15:22:13;2.60;;;2.33;;
13435;SDS011;6790;49.520;8.504;2023-05-03T15:24:38;4.82;;;2.40;;
13435;SDS011;6790;49.520;8.504;2023-05-03T15:27:05;2.63;;;2.38;;
13435;SDS011;6790;49.520;8.504;2023-05-03T15:29:31;3.65;;;2.42;;
13435;SDS011;6790;49.520;8.504;2023-05-03T15:31:58;3.90;;;2.40;;
13435;SDS011;6790;49.520;8.504;2023-05-03T15:34:26;2.65;;;2.22;;
13435;SDS011;6790;49.520;8.504;2023-05-03T15:36:52;2.45;;;2.20;;
13435;SDS011;6790;49.520;8.504;2023-05-03T15:39:17;2.85;;;2.40;;
13435;SDS011;6790;49.520;8.504;2023-05-03T15:41:43;3.08;;;2.50;;